Time;durP1;ratioP1;P1;durP2;ratioP2;P2;SDS_P1;SDS_P2;PMS_P1;PMS_P2;Temp;Humidity;BMP_temperature;BMP_pressure;BME280_temperature;BME280_humidity;BME280_pressure;Samples;Min_cycle;Max_cycle;Signal;HPM_P1;HPM_P2
2021/06/17 00:00:46;;;;;;;8.87;4.13;;;;;;;20.69;100.00;99871.24;1787595;80;21119;-66
2021/06/17 00:03:13;;;;;;;4.67;3.27;;;;;;;20.76;100.00;99874.42;1788603;80;21173;-66
2021/06/17 00:05:42;;;;;;;6.40;3.77;;;;;;;20.74;100.00;99873.90;1773319;79;21527;-70
2021/06/17 00:08:09;;;;;;;5.07;3.63;;;;;;;20.79;100.00;99874.70;1774872;80;21051;-67
2021/06/17 00:10:45;;;;;;;6.60;3.60;;;;;;;20.87;100.00;99872.08;1741507;80;21506;-63
2021/06/17 00:13:22;;;;;;;5.37;3.10;;;;;;;20.94;100.00;99874.48;1769745;79;21339;-66
2021/06/17 00:15:50;;;;;;;6.03;3.80;;;;;;;20.92;100.00;99876.09;1775534;80;20988;-67
2021/06/17 00:18:17;;;;;;;4.80;3.90;;;;;;;20.85;100.00;99871.03;1761406;79;21005;-66
2021/06/17 00:20:44;;;;;;;4.90;3.67;;;;;;;20.86;100.00;99873.94;1786160;80;22335;-68
2021/06/17 00:23:11;;;;;;;4.50;4.10;;;;;;;20.78;100.00;99872.33;1773239;79;20993;-68
2021/06/17 00:25:38;;;;;;;5.90;3.70;;;;;;;20.76;100.00;99870.45;1785920;80;21145;-68
2021/06/17 00:28:05;;;;;;;4.17;3.73;;;;;;;20.76;100.00;99858.53;1773488;79;20934;-64
2021/06/17 00:30:31;;;;;;;6.30;4.03;;;;;;;20.69;100.00;99863.30;1785302;80;20953;-67
2021/06/17 00:32:59;;;;;;;4.30;3.30;;;;;;;20.79;100.00;99855.37;1774357;79;20993;-68
2021/06/17 00:35:26;;;;;;;6.80;3.33;;;;;;;20.71;100.00;99854.55;1773938;80;21099;-69
2021/06/17 00:37:53;;;;;;;4.97;3.60;;;;;;;20.65;100.00;99852.42;1773028;79;22254;-64
2021/06/17 00:40:20;;;;;;;5.47;3.80;;;;;;;20.59;100.00;99856.89;1785203;80;20996;-68
2021/06/17 00:42:49;;;;;;;4.93;3.57;;;;;;;20.60;100.00;99863.77;1773182;79;21354;-68
2021/06/17 00:45:24;;;;;;;9.63;4.80;;;;;;;20.56;100.00;99860.58;1785509;80;20921;-68
2021/06/17 00:47:50;;;;;;;4.77;3.23;;;;;;;20.56;100.00;99870.64;1772352;79;20986;-69
2021/06/17 00:50:17;;;;;;;5.30;3.03;;;;;;;20.60;100.00;99870.39;1784971;79;21181;-64
2021/06/17 00:52:44;;;;;;;5.97;3.33;;;;;;;20.63;100.00;99867.23;1730486;80;20948;-68
2021/06/17 00:55:12;;;;;;;4.27;3.13;;;;;;;20.63;100.00;99879.67;1772807;80;21077;-69
2021/06/17 00:57:40;;;;;;;5.27;2.77;;;;;;;20.73;100.00;99881.59;1785703;80;21454;-70
2021/06/17 01:00:09;;;;;;;4.07;3.20;;;;;;;20.79;100.00;99874.70;1773726;79;20867;-65
2021/06/17 01:02:36;;;;;;;6.00;3.50;;;;;;;20.76;100.00;99873.92;1785213;80;21992;-69
2021/06/17 01:05:10;;;;;;;6.60;2.90;;;;;;;20.79;100.00;99882.65;1767135;79;21617;-68
2021/06/17 01:07:58;;;;;;;4.30;3.17;;;;;;;20.81;100.00;99881.08;1785760;80;21050;-69
2021/06/17 01:10:37;;;;;;;5.87;2.80;;;;;;;20.81;100.00;99885.05;1788129;80;21017;-69
2021/06/17 01:13:19;;;;;;;6.40;3.33;;;;;;;20.82;100.00;99883.46;1758576;80;20878;-68
2021/06/17 01:15:51;;;;;;;6.57;3.40;;;;;;;20.87;100.00;99900.72;1764446;79;21605;-64
2021/06/17 01:18:17;;;;;;;5.83;3.50;;;;;;;20.94;100.00;99895.16;1752788;79;20976;-68
2021/06/17 01:20:53;;;;;;;8.40;3.03;;;;;;;21.06;100.00;99895.74;1764788;79;20918;-68
2021/06/17 01:23:47;;;;;;;6.13;3.30;;;;;;;20.87;100.00;99901.22;1762961;79;21439;-68
2021/06/17 01:26:39;;;;;;;6.03;3.90;;;;;;;20.58;100.00;99905.62;1763953;80;20988;-68
2021/06/17 01:29:06;;;;;;;6.67;4.23;;;;;;;20.51;100.00;99903.72;1733954;81;21189;-63
2021/06/17 01:31:34;;;;;;;6.00;3.97;;;;;;;20.77;100.00;99893.25;1763767;79;21001;-68
2021/06/17 01:34:00;;;;;;;5.27;3.20;;;;;;;20.55;100.00;99894.73;1722933;82;21324;-68
2021/06/17 01:36:40;;;;;;;5.33;3.17;;;;;;;20.53;100.00;99895.01;1751256;80;20958;-66
2021/06/17 01:39:09;;;;;;;4.87;3.77;;;;;;;20.51;100.00;99898.43;1764671;79;20946;-63
2021/06/17 01:41:38;;;;;;;7.17;3.40;;;;;;;20.46;100.00;99899.70;1764492;79;21115;-67
2021/06/17 01:44:08;;;;;;;4.87;3.33;;;;;;;20.33;100.00;99900.14;1763876;80;20957;-68
2021/06/17 01:46:34;;;;;;;4.10;2.87;;;;;;;20.34;100.00;99898.59;1731328;80;20990;-68
2021/06/17 01:49:01;;;;;;;3.90;2.90;;;;;;;20.40;100.00;99894.10;1764623;79;20996;-68
2021/06/17 01:51:28;;;;;;;3.80;3.40;;;;;;;20.32;100.00;99894.06;1707291;81;20981;-67
2021/06/17 01:53:55;;;;;;;5.97;3.53;;;;;;;20.40;100.00;99899.39;1708924;80;21167;-68
2021/06/17 01:56:23;;;;;;;5.80;3.50;;;;;;;20.57;100.00;99895.27;1763839;79;21447;-64
2021/06/17 01:58:52;;;;;;;3.73;2.90;;;;;;;20.59;100.00;99899.79;1763873;80;21546;-67
2021/06/17 02:01:20;;;;;;;4.13;3.03;;;;;;;20.76;100.00;99897.76;1763730;80;20981;-67
2021/06/17 02:03:47;;;;;;;4.60;3.40;;;;;;;20.94;100.00;99899.12;1709761;80;22398;-68
2021/06/17 02:06:16;;;;;;;6.07;3.20;;;;;;;21.04;100.00;99895.20;1773822;80;21150;-67
2021/06/17 02:08:52;;;;;;;7.07;3.53;;;;;;;21.09;100.00;99901.83;1766113;79;20881;-68
2021/06/17 02:11:19;;;;;;;4.83;3.57;;;;;;;21.13;100.00;99902.89;1758863;80;20986;-63
2021/06/17 02:13:46;;;;;;;5.73;3.83;;;;;;;21.43;100.00;99890.79;1758454;80;20969;-68
2021/06/17 02:16:14;;;;;;;5.07;3.43;;;;;;;21.41;100.00;99893.46;1758582;80;21019;-63
2021/06/17 02:18:40;;;;;;;5.37;3.70;;;;;;;21.40;100.00;99884.68;1719496;81;22505;-68
2021/06/17 02:21:08;;;;;;;4.33;2.97;;;;;;;21.37;100.00;99879.93;1759051;81;21523;-68
2021/06/17 02:23:35;;;;;;;4.47;3.20;;;;;;;21.41;100.00;99879.67;1759522;80;21054;-63
2021/06/17 02:26:01;;;;;;;5.27;3.43;;;;;;;21.51;100.00;99875.68;1759221;80;20895;-69
2021/06/17 02:28:30;;;;;;;5.53;3.30;;;;;;;21.59;100.00;99883.13;1757744;80;20988;-68
2021/06/17 02:31:01;;;;;;;5.20;3.47;;;;;;;21.60;100.00;99874.11;1759078;80;21162;-68
2021/06/17 02:33:28;;;;;;;4.40;3.62;;;;;;;21.62;100.00;99879.92;1755744;80;20874;-69
2021/06/17 02:35:55;;;;;;;3.57;2.80;;;;;;;21.68;100.00;99878.63;1749983;80;20922;-64
2021/06/17 02:38:29;;;;;;;4.40;3.10;;;;;;;21.73;100.00;99871.98;1758410;80;21021;-69
2021/06/17 02:41:03;;;;;;;4.40;3.20;;;;;;;21.73;100.00;99871.98;1758479;80;21055;-68
2021/06/17 02:43:33;;;;;;;7.03;4.07;;;;;;;21.77;100.00;99876.48;1758685;80;21123;-67
2021/06/17 02:46:02;;;;;;;3.67;2.70;;;;;;;21.56;100.00;99881.54;1751587;80;21000;-68
2021/06/17 02:48:28;;;;;;;4.67;2.93;;;;;;;21.64;100.00;99886.84;1759299;80;22220;-69
2021/06/17 02:50:55;;;;;;;4.97;2.97;;;;;;;21.68;100.00;99894.54;1750722;80;21445;-71
2021/06/17 02:53:22;;;;;;;5.23;3.33;;;;;;;21.62;100.00;99904.34;1756340;80;20974;-69
2021/06/17 02:55:49;;;;;;;3.73;2.90;;;;;;;21.42;100.00;99902.47;1759357;80;22413;-63
2021/06/17 02:58:31;;;;;;;6.87;3.67;;;;;;;21.45;100.00;99907.25;1758293;80;21010;-68
2021/06/17 03:01:20;;;;;;;4.67;3.57;;;;;;;21.56;100.00;99902.76;1742053;78;21552;-69
2021/06/17 03:03:59;;;;;;;3.60;2.53;;;;;;;21.62;100.00;99903.80;1730108;82;20984;-70
2021/06/17 03:06:30;;;;;;;4.70;3.07;;;;;;;21.73;100.00;99909.91;1722366;80;21515;-69
2021/06/17 03:09:03;;;;;;;6.23;3.40;;;;;;;21.80;100.00;99906.47;1715481;81;21154;-68
2021/06/17 03:11:34;;;;;;;4.77;3.47;;;;;;;21.76;100.00;99909.92;1755576;79;21551;-64
2021/06/17 03:14:05;;;;;;;4.80;2.80;;;;;;;21.97;100.00;99903.55;1713086;82;21074;-68
2021/06/17 03:16:36;;;;;;;5.47;3.37;;;;;;;21.75;100.00;99905.15;1753868;79;21583;-68
2021/06/17 03:19:03;;;;;;;5.30;3.47;;;;;;;21.85;100.00;99916.28;1754732;81;20938;-68
2021/06/17 03:21:38;;;;;;;4.23;3.37;;;;;;;22.02;100.00;99918.14;1687562;83;22673;-63
2021/06/17 03:24:05;;;;;;;4.80;3.30;;;;;;;22.04;100.00;99923.96;1754123;81;20923;-69
2021/06/17 03:26:33;;;;;;;9.37;3.27;;;;;;;22.08;100.00;99915.72;1753712;79;21006;-68
2021/06/17 03:29:00;;;;;;;5.40;3.47;;;;;;;22.30;100.00;99914.67;1714492;81;21544;-63
2021/06/17 03:31:27;;;;;;;5.90;3.43;;;;;;;21.85;100.00;99912.30;1687668;83;21553;-62
2021/06/17 03:33:54;;;;;;;6.47;3.20;;;;;;;21.78;100.00;99917.07;1738596;82;22365;-70
2021/06/17 03:36:21;;;;;;;4.03;3.20;;;;;;;21.86;100.00;99912.05;1691860;81;20970;-70
2021/06/17 03:38:49;;;;;;;6.10;4.00;;;;;;;21.99;100.00;99910.70;1743350;81;20992;-70
2021/06/17 03:41:16;;;;;;;4.67;3.23;;;;;;;22.14;100.00;99913.11;1755203;79;20986;-65
2021/06/17 03:43:43;;;;;;;6.33;3.30;;;;;;;22.38;100.00;99914.66;1713819;81;20990;-70
2021/06/17 03:46:10;;;;;;;5.17;3.60;;;;;;;22.61;100.00;99913.27;1753945;80;21192;-69
2021/06/17 03:48:43;;;;;;;5.50;3.27;;;;;;;22.78;100.00;99913.73;1714141;81;21008;-71
2021/06/17 03:51:12;;;;;;;6.47;3.40;;;;;;;22.80;100.00;99915.58;1755991;79;21022;-71
2021/06/17 03:53:40;;;;;;;5.07;3.43;;;;;;;22.81;100.00;99919.84;1753170;81;20959;-70
2021/06/17 03:56:08;;;;;;;3.40;2.90;;;;;;;22.77;100.00;99926.77;1714598;81;21536;-71
2021/06/17 03:58:35;;;;;;;4.77;3.80;;;;;;;22.86;100.00;99929.12;1758955;79;21133;-70
2021/06/17 04:01:03;;;;;;;5.23;3.30;;;;;;;22.81;100.00;99915.86;1721413;81;20967;-71
2021/06/17 04:03:30;;;;;;;5.43;3.23;;;;;;;23.00;100.00;99937.34;1750364;81;21026;-64
2021/06/17 04:05:58;;;;;;;4.07;2.90;;;;;;;23.15;100.00;99947.89;1751552;81;21309;-71
2021/06/17 04:08:31;;;;;;;4.70;3.40;;;;;;;23.21;100.00;99953.97;1752483;81;21068;-71
2021/06/17 04:11:00;;;;;;;5.97;3.63;;;;;;;23.07;100.00;99960.44;1751716;81;21148;-71
2021/06/17 04:13:28;;;;;;;3.90;3.23;;;;;;;22.99;100.00;99964.43;1750891;81;20903;-63
2021/06/17 04:15:55;;;;;;;3.70;3.13;;;;;;;22.93;100.00;99974.84;1751105;81;21009;-70
2021/06/17 04:18:24;;;;;;;5.57;3.20;;;;;;;22.95;100.00;99989.17;1752260;81;20995;-73
2021/06/17 04:20:54;;;;;;;6.40;3.97;;;;;;;23.02;100.00;99998.45;1723007;81;20867;-69
2021/06/17 04:23:22;;;;;;;5.13;3.70;;;;;;;22.96;100.00;100010.19;1750512;81;21954;-65
2021/06/17 04:25:49;;;;;;;5.30;3.60;;;;;;;22.80;100.00;100020.55;1750888;81;21022;-72
2021/06/17 04:28:16;;;;;;;9.03;3.90;;;;;;;23.04;100.00;100038.86;1725402;81;21093;-70
2021/06/17 04:30:42;;;;;;;5.33;3.50;;;;;;;23.05;100.00;100036.46;1738076;81;20899;-70
2021/06/17 04:33:12;;;;;;;4.93;3.77;;;;;;;23.11;100.00;100041.75;1751224;81;21005;-70
2021/06/17 04:35:41;;;;;;;6.73;3.70;;;;;;;22.99;100.00;100038.06;1742514;81;21101;-64
2021/06/17 04:38:12;;;;;;;5.97;3.40;;;;;;;23.15;100.00;100033.52;1751967;81;20926;-70
2021/06/17 04:40:40;;;;;;;9.73;4.20;;;;;;;23.31;100.00;100031.05;1746235;81;21397;-69
2021/06/17 04:43:07;;;;;;;6.50;3.43;;;;;;;23.52;100.00;100027.75;1745322;80;20866;-67
2021/06/17 04:45:34;;;;;;;6.83;3.53;;;;;;;23.65;100.00;100037.00;1742158;80;21005;-68
2021/06/17 04:48:05;;;;;;;4.90;4.00;;;;;;;23.73;100.00;100040.45;1728469;81;22211;-64
2021/06/17 04:50:31;;;;;;;6.87;4.13;;;;;;;23.85;100.00;100046.22;1735484;81;21121;-72
2021/06/17 04:53:14;;;;;;;9.40;3.90;;;;;;;23.77;100.00;100044.14;1735705;82;20931;-71
2021/06/17 04:55:50;;;;;;;6.40;3.70;;;;;;;23.91;100.00;100046.45;1724629;82;21603;-71
2021/06/17 04:58:17;;;;;;;5.40;3.70;;;;;;;24.04;100.00;100048.48;1736353;81;21057;-72
2021/06/17 05:00:44;;;;;;;4.53;3.60;;;;;;;24.02;100.00;100055.97;1738177;81;21148;-72
2021/06/17 05:03:10;;;;;;;5.30;4.00;;;;;;;23.94;100.00;100064.55;1722214;81;21623;-71
2021/06/17 05:05:37;;;;;;;5.27;4.20;;;;;;;23.88;100.00;100079.48;1723626;81;22386;-71
2021/06/17 05:10:53;;;;;;;6.53;3.70;;;;;;;23.76;100.00;100108.56;1728229;82;20987;-64
2021/06/17 05:13:24;;;;;;;7.20;4.10;;;;;;;23.58;100.00;100127.77;1758010;79;21116;-70
2021/06/17 05:15:53;;;;;;;6.37;4.03;;;;;;;23.41;100.00;100143.25;1713958;81;20948;-69
2021/06/17 05:18:23;;;;;;;5.60;3.73;;;;;;;23.40;100.00;100157.62;1754874;79;21028;-70
2021/06/17 05:20:51;;;;;;;6.90;4.13;;;;;;;23.30;100.00;100170.43;1753243;79;20978;-70
2021/06/17 05:23:23;;;;;;;7.47;4.90;;;;;;;23.22;100.00;100181.59;1713215;81;21070;-71
2021/06/17 05:25:50;;;;;;;7.17;4.97;;;;;;;23.01;100.00;100174.98;1753394;81;21126;-70
2021/06/17 05:28:20;;;;;;;6.60;4.70;;;;;;;23.00;100.00;100183.23;1712929;83;21379;-71
2021/06/17 05:30:47;;;;;;;8.47;4.93;;;;;;;22.94;100.00;100194.38;1753636;81;20911;-70
2021/06/17 05:33:14;;;;;;;8.17;4.73;;;;;;;22.89;100.00;100195.70;1714008;81;21066;-68
2021/06/17 05:35:40;;;;;;;7.63;5.03;;;;;;;22.87;100.00;100195.15;1738403;82;21579;-64
2021/06/17 05:38:07;;;;;;;7.67;5.13;;;;;;;22.38;100.00;100192.17;1755065;79;21130;-70
2021/06/17 05:40:34;;;;;;;10.10;4.87;;;;;;;22.26;100.00;100201.71;1713309;81;21038;-65
2021/06/17 05:43:00;;;;;;;6.93;3.80;;;;;;;22.33;100.00;100188.98;1754008;81;21112;-70
2021/06/17 05:45:27;;;;;;;5.70;4.80;;;;;;;22.26;100.00;100185.25;1714424;81;21011;-70
2021/06/17 05:47:54;;;;;;;6.97;4.60;;;;;;;22.25;100.00;100176.23;1753467;81;20938;-65
2021/06/17 05:50:21;;;;;;;6.50;4.10;;;;;;;22.22;100.00;100186.83;1713314;81;21123;-71
2021/06/17 05:52:47;;;;;;;7.90;4.97;;;;;;;22.32;100.00;100195.36;1712514;81;20952;-71
2021/06/17 05:55:14;;;;;;;7.47;4.43;;;;;;;22.33;100.00;100181.02;1753678;80;21389;-71
2021/06/17 05:57:41;;;;;;;5.70;4.80;;;;;;;22.50;100.00;100177.61;1753219;81;21436;-71
2021/06/17 06:00:09;;;;;;;5.37;4.10;;;;;;;22.69;100.00;100169.09;1712841;83;21063;-71
2021/06/17 06:02:37;;;;;;;6.63;3.80;;;;;;;22.76;100.00;100166.98;1754084;80;21875;-71
2021/06/17 06:05:05;;;;;;;6.77;4.20;;;;;;;22.82;100.00;100160.61;1715652;83;21121;-72
2021/06/17 06:07:32;;;;;;;6.07;3.93;;;;;;;22.77;100.00;100160.62;1714892;83;21478;-71
2021/06/17 06:09:59;;;;;;;6.37;4.30;;;;;;;22.81;100.00;100161.68;1714902;82;20940;-72
2021/06/17 06:12:26;;;;;;;8.83;4.87;;;;;;;22.81;100.00;100155.83;1714185;83;21061;-69
2021/06/17 06:14:53;;;;;;;7.87;4.50;;;;;;;22.86;100.00;100145.72;1705490;83;21330;-72
2021/06/17 06:17:19;;;;;;;6.00;4.60;;;;;;;22.99;100.00;100145.19;1715131;83;21003;-71
2021/06/17 06:19:46;;;;;;;6.90;5.17;;;;;;;23.25;100.00;100138.51;1714229;83;20998;-73
2021/06/17 06:22:13;;;;;;;7.07;4.70;;;;;;;23.41;100.00;100134.76;1715128;83;21038;-72
2021/06/17 06:24:41;;;;;;;6.97;4.83;;;;;;;23.11;100.00;100134.80;1675479;85;21553;-65
2021/06/17 06:27:08;;;;;;;9.63;5.03;;;;;;;23.12;100.00;100131.11;1715056;83;21466;-71
2021/06/17 06:29:35;;;;;;;7.30;4.90;;;;;;;22.93;100.00;100131.66;1714637;83;21022;-71
2021/06/17 06:32:03;;;;;;;8.23;4.33;;;;;;;23.12;100.00;100127.12;1714347;83;20912;-71
2021/06/17 06:34:30;;;;;;;6.90;4.40;;;;;;;23.02;100.00;100119.41;1713825;82;21587;-64
2021/06/17 06:36:57;;;;;;;7.33;4.50;;;;;;;22.93;100.00;100119.70;1714860;82;21470;-71
2021/06/17 06:39:23;;;;;;;6.03;4.47;;;;;;;22.91;100.00;100118.33;1714356;83;21086;-72
2021/06/17 06:41:51;;;;;;;5.17;3.80;;;;;;;23.00;100.00;100116.23;1714487;83;21047;-65
2021/06/17 06:44:18;;;;;;;5.90;3.80;;;;;;;23.12;100.00;100111.95;1714538;83;20911;-72
2021/06/17 06:46:45;;;;;;;6.97;4.63;;;;;;;23.13;100.00;100104.77;1713222;81;21600;-71
2021/06/17 06:49:12;;;;;;;6.03;4.43;;;;;;;23.22;100.00;100102.63;1702248;83;21062;-70
2021/06/17 06:51:39;;;;;;;7.03;4.10;;;;;;;23.39;100.00;100102.30;1715575;83;21162;-71
2021/06/17 06:54:07;;;;;;;8.43;4.23;;;;;;;23.50;100.00;100092.42;1714567;83;20999;-73
2021/06/17 06:56:36;;;;;;;4.73;3.80;;;;;;;23.61;100.00;100098.50;1715527;83;21034;-71
2021/06/17 06:59:03;;;;;;;5.00;4.10;;;;;;;23.76;100.00;100101.11;1713515;83;20963;-71
2021/06/17 07:01:29;;;;;;;8.67;4.40;;;;;;;23.86;100.00;100100.25;1697287;83;22406;-72
2021/06/17 07:03:56;;;;;;;8.50;4.60;;;;;;;24.04;100.00;100100.94;1746392;82;21123;-73
2021/06/17 07:06:23;;;;;;;11.33;4.87;;;;;;;24.02;100.00;100094.58;1745768;82;21519;-72
2021/06/17 07:08:52;;;;;;;5.00;4.30;;;;;;;24.15;100.00;100100.34;1745745;80;21068;-69
2021/06/17 07:11:18;;;;;;;6.63;4.50;;;;;;;24.04;100.00;100106.27;1744244;80;22510;-73
2021/06/17 07:13:46;;;;;;;6.00;4.77;;;;;;;24.03;100.00;100111.34;1746528;82;21426;-72
2021/06/17 07:16:12;;;;;;;7.57;4.27;;;;;;;24.10;100.00;100109.71;1746144;82;21137;-70
2021/06/17 07:18:39;;;;;;;9.07;4.20;;;;;;;24.17;100.00;100101.67;1745562;82;21029;-71
2021/06/17 07:21:05;;;;;;;8.30;4.60;;;;;;;24.30;100.00;100104.23;1745784;82;21068;-69
2021/06/17 07:23:33;;;;;;;6.23;4.57;;;;;;;24.41;100.00;100097.78;1744451;80;21240;-71
2021/06/17 07:26:01;;;;;;;10.13;4.60;;;;;;;24.63;100.00;100103.22;1746271;82;22158;-64
2021/06/17 07:28:29;;;;;;;7.07;4.20;;;;;;;25.05;100.00;100103.88;1743086;82;21097;-70
2021/06/17 07:30:56;;;;;;;6.33;4.13;;;;;;;24.91;100.00;100104.27;1746227;82;21061;-65
2021/06/17 07:33:23;;;;;;;6.67;4.40;;;;;;;25.12;100.00;100112.91;1745767;82;20998;-69
2021/06/17 07:35:49;;;;;;;6.43;3.90;;;;;;;25.35;100.00;100112.66;1745931;82;21031;-69
2021/06/17 07:38:16;;;;;;;7.63;4.63;;;;;;;25.24;100.00;100113.30;1738569;81;20944;-65
2021/06/17 07:40:43;;;;;;;9.67;5.00;;;;;;;25.30;100.00;100113.48;1745468;82;21142;-71
2021/06/17 07:43:10;;;;;;;8.43;4.53;;;;;;;25.66;100.00;100124.53;1741156;80;21609;-69
2021/06/17 07:45:37;;;;;;;7.50;4.70;;;;;;;25.57;100.00;100122.27;1743933;80;21477;-72
2021/06/17 07:48:09;;;;;;;6.10;4.33;;;;;;;25.81;100.00;100119.57;1743973;80;21050;-71
2021/06/17 07:50:33;;;;;;;4.90;4.40;;;;;;;25.82;100.00;100123.03;1739873;80;21026;-71
2021/06/17 07:53:00;;;;;;;6.63;4.50;;;;;;;25.87;100.00;100126.41;1735828;80;21568;-72
2021/06/17 07:55:27;;;;;;;9.33;4.97;;;;;;;25.92;100.00;100125.57;1734691;80;20998;-65
2021/06/17 07:57:54;;;;;;;6.30;4.57;;;;;;;26.07;100.00;100130.70;1745582;82;21156;-73
2021/06/17 08:00:21;;;;;;;6.23;4.60;;;;;;;26.25;100.00;100138.43;1729029;80;21100;-72
2021/06/17 08:02:47;;;;;;;5.73;4.27;;;;;;;26.49;100.00;100137.59;1741183;80;21468;-67
2021/06/17 08:05:14;;;;;;;5.83;4.13;;;;;;;26.98;100.00;100133.55;1753873;81;21187;-72
2021/06/17 08:07:41;;;;;;;4.60;3.77;;;;;;;27.29;100.00;100131.91;1748965;81;21014;-72
2021/06/17 08:10:09;;;;;;;5.08;4.00;;;;;;;27.47;100.00;100139.59;1747943;81;21036;-73
2021/06/17 08:12:36;;;;;;;4.62;4.10;;;;;;;28.00;100.00;100145.74;1755975;81;21145;-66
2021/06/17 08:15:06;;;;;;;4.65;3.60;;;;;;;28.55;100.00;100140.73;1731187;80;20949;-73
2021/06/17 08:17:33;;;;;;;4.45;3.45;;;;;;;29.05;100.00;100139.21;1729529;82;21299;-70
2021/06/17 08:19:59;;;;;;;4.45;3.45;;;;;;;29.41;100.00;100145.75;1723579;82;21080;-72
2021/06/17 08:22:27;;;;;;;4.40;3.62;;;;;;;29.44;100.00;100151.06;1721772;80;20949;-70
2021/06/17 08:24:54;;;;;;;4.92;3.37;;;;;;;29.57;100.00;100155.50;1731072;81;20939;-72
2021/06/17 08:27:21;;;;;;;4.25;3.40;;;;;;;29.56;100.00;100151.24;1706156;82;21180;-72
2021/06/17 08:29:49;;;;;;;4.22;3.42;;;;;;;29.60;100.00;100148.20;1726841;81;21198;-72
2021/06/17 08:32:16;;;;;;;4.03;3.12;;;;;;;29.87;100.00;100147.69;1727537;81;21002;-71
2021/06/17 08:34:43;;;;;;;4.42;3.20;;;;;;;30.09;100.00;100142.72;1730401;82;21062;-69
2021/06/17 08:37:09;;;;;;;3.67;2.90;;;;;;;30.04;100.00;100154.40;1732217;80;21095;-72
2021/06/17 08:39:36;;;;;;;3.85;2.80;;;;;;;30.04;100.00;100147.16;1731431;80;21103;-73
2021/06/17 08:42:04;;;;;;;3.50;2.70;;;;;;;30.08;100.00;100150.53;1730008;81;21137;-71
2021/06/17 08:44:31;;;;;;;3.92;3.12;;;;;;;29.95;100.00;100153.62;1730618;82;20946;-71
2021/06/17 08:46:58;;;;;;;6.65;2.87;;;;;;;29.90;100.00;100153.22;1731263;81;20892;-69
2021/06/17 08:49:27;;;;;;;3.12;2.60;;;;;;;29.79;100.00;100154.08;1731101;80;21005;-71
2021/06/17 08:51:58;;;;;;;5.00;2.80;;;;;;;29.54;100.00;100153.44;1730087;81;21543;-68
2021/06/17 08:54:25;;;;;;;3.87;2.60;;;;;;;29.51;100.00;100164.27;1727278;81;21189;-71
2021/06/17 08:56:54;;;;;;;4.83;2.92;;;;;;;29.48;100.00;100150.12;1731315;80;21049;-73
2021/06/17 08:59:34;;;;;;;3.67;2.98;;;;;;;29.53;100.00;100149.17;1728914;81;21030;-71
2021/06/17 09:02:03;;;;;;;3.35;2.85;;;;;;;29.23;100.00;100139.52;1729558;80;20966;-72
2021/06/17 09:04:31;;;;;;;6.85;3.20;;;;;;;29.33;100.00;100134.44;1713088;81;21019;-72
2021/06/17 09:07:08;;;;;;;4.25;3.00;;;;;;;29.64;100.00;100136.28;1753978;79;22079;-66
2021/06/17 09:09:40;;;;;;;3.85;3.30;;;;;;;29.64;100.00;100136.28;1713715;83;20892;-66
2021/06/17 09:12:10;;;;;;;4.45;3.52;;;;;;;29.94;100.00;100134.02;1752205;79;21072;-74
2021/06/17 09:14:38;;;;;;;4.33;3.62;;;;;;;30.13;100.00;100131.02;1753383;80;21468;-66
2021/06/17 09:17:08;;;;;;;3.17;2.87;;;;;;;30.47;100.00;100125.39;1714969;81;21473;-71
2021/06/17 09:19:38;;;;;;;3.33;3.00;;;;;;;30.67;100.00;100127.95;1752672;81;21512;-71
2021/06/17 09:22:07;;;;;;;4.17;2.60;;;;;;;30.85;100.00;100124.70;1714314;81;21050;-72
2021/06/17 09:24:35;;;;;;;4.78;3.37;;;;;;;30.68;100.00;100119.55;1753204;80;20981;-71
2021/06/17 09:27:20;;;;;;;4.25;3.67;;;;;;;30.69;100.00;100123.05;1713473;81;21046;-70
2021/06/17 09:29:48;;;;;;;4.72;3.40;;;;;;;30.85;100.00;100122.00;1733944;80;21046;-73
2021/06/17 09:32:26;;;;;;;5.37;3.60;;;;;;;30.73;100.00;100116.70;1709551;81;21152;-73
2021/06/17 09:34:54;;;;;;;4.85;3.20;;;;;;;30.76;100.00;100122.83;1674333;85;21120;-65
2021/06/17 09:37:36;;;;;;;4.05;3.35;;;;;;;30.90;100.00;100114.53;1711785;82;21019;-73
2021/06/17 09:40:33;;;;;;;5.12;3.22;;;;;;;31.05;100.00;100115.89;1753443;80;21390;-69
2021/06/17 09:43:15;;;;;;;5.97;4.87;;;;;;;31.00;100.00;100113.39;1712516;81;21041;-72
2021/06/17 09:46:04;;;;;;;3.80;3.27;;;;;;;30.92;100.00;100122.30;1711591;81;21163;-68
2021/06/17 09:48:42;;;;;;;5.62;3.22;;;;;;;30.75;100.00;100115.05;1710410;82;21030;-70
2021/06/17 09:51:44;;;;;;;4.00;2.90;;;;;;;30.82;100.00;100118.05;1750706;81;21045;-71
2021/06/17 09:54:21;;;;;;;3.22;2.90;;;;;;;30.55;100.00;100119.20;1707934;81;21491;-69
2021/06/17 09:57:01;;;;;;;4.22;2.65;;;;;;;30.41;100.00;100114.56;1755649;79;20875;-71
2021/06/17 09:59:49;;;;;;;3.20;2.55;;;;;;;30.51;100.00;100119.05;1710927;81;26304;-72
2021/06/17 10:02:25;;;;;;;3.52;2.60;;;;;;;30.36;100.00;100117.42;1712131;81;20992;-71
2021/06/17 10:05:13;;;;;;;4.90;2.70;;;;;;;30.30;100.00;100101.44;1711585;81;21570;-70
2021/06/17 10:07:39;;;;;;;6.70;2.50;;;;;;;30.34;100.00;100104.84;1747505;80;20954;-69
2021/06/17 10:10:08;;;;;;;3.65;2.80;;;;;;;30.44;100.00;100112.02;1748961;81;21531;-72
2021/06/17 10:12:36;;;;;;;3.72;2.55;;;;;;;30.59;100.00;100114.77;1713043;81;21551;-66
2021/06/17 10:15:04;;;;;;;3.30;2.30;;;;;;;30.48;100.00;100115.65;1713894;81;21059;-69
2021/06/17 10:17:31;;;;;;;3.37;2.20;;;;;;;30.60;100.00;100122.27;1748090;81;20981;-71
2021/06/17 10:19:59;;;;;;;3.47;2.40;;;;;;;30.41;100.00;100119.38;1747044;80;21011;-69
2021/06/17 10:22:28;;;;;;;2.70;2.10;;;;;;;30.48;100.00;100121.03;1683785;83;21077;-64
2021/06/17 10:24:56;;;;;;;2.65;2.20;;;;;;;30.57;100.00;100123.69;1747783;81;21453;-72
2021/06/17 10:27:32;;;;;;;3.40;2.40;;;;;;;30.68;100.00;100127.63;1745424;81;20982;-68
2021/06/17 10:29:59;;;;;;;3.92;2.30;;;;;;;30.60;100.00;100129.00;1749217;81;20979;-70
2021/06/17 10:32:40;;;;;;;3.87;2.12;;;;;;;30.72;100.00;100130.46;1714144;83;21022;-65
2021/06/17 10:35:08;;;;;;;3.08;2.10;;;;;;;30.86;100.00;100114.16;1748413;81;21002;-69
2021/06/17 10:37:50;;;;;;;3.58;2.00;;;;;;;30.93;100.00;100088.31;1715142;83;21126;-67
2021/06/17 10:40:19;;;;;;;4.03;2.30;;;;;;;30.94;100.00;100100.66;1746235;80;21362;-71
2021/06/17 10:42:47;;;;;;;2.45;2.20;;;;;;;31.09;100.00;100100.67;1685475;83;21006;-70
2021/06/17 10:45:40;;;;;;;3.47;1.90;;;;;;;31.28;100.00;100108.33;1748337;80;20958;-69
2021/06/17 10:48:25;;;;;;;3.77;2.50;;;;;;;31.58;100.00;100109.13;1742839;81;21061;-71
2021/06/17 10:51:07;;;;;;;3.15;2.17;;;;;;;31.93;100.00;100108.89;1711928;81;22128;-74
2021/06/17 10:53:45;;;;;;;3.30;2.02;;;;;;;31.91;100.00;100111.93;1714748;81;21014;-72
2021/06/17 10:56:16;;;;;;;3.58;2.02;;;;;;;31.76;100.00;100113.84;1749401;81;21045;-69
2021/06/17 10:58:50;;;;;;;3.10;2.50;;;;;;;31.67;100.00;100106.36;1744815;81;20998;-66
2021/06/17 11:01:31;;;;;;;4.10;2.20;;;;;;;31.56;100.00;100108.69;1748153;81;20979;-72
2021/06/17 11:04:16;;;;;;;3.17;2.37;;;;;;;31.54;100.00;100102.82;1714634;81;21596;-74
2021/06/17 11:07:07;;;;;;;3.60;1.90;;;;;;;31.85;100.00;100113.23;1745026;81;20887;-64
2021/06/17 11:09:45;;;;;;;2.55;1.90;;;;;;;32.02;100.00;100123.11;1714574;81;21587;-70
2021/06/17 11:12:27;;;;;;;4.80;1.90;;;;;;;31.67;100.00;100114.45;1711942;82;20956;-64
2021/06/17 11:14:57;;;;;;;2.33;2.12;;;;;;;31.41;100.00;100118.13;1746076;80;20955;-71
2021/06/17 11:17:33;;;;;;;2.30;2.00;;;;;;;31.20;100.00;100115.91;1702853;81;20957;-72
2021/06/17 11:20:19;;;;;;;2.90;2.27;;;;;;;31.11;100.00;100121.34;1742467;81;21101;-71
2021/06/17 11:22:48;;;;;;;3.83;2.02;;;;;;;30.92;100.00;100116.91;1737813;81;21528;-73
2021/06/17 11:25:24;;;;;;;2.45;1.98;;;;;;;30.89;100.00;100109.48;1714873;81;21544;-65
2021/06/17 11:28:08;;;;;;;3.05;2.15;;;;;;;30.87;100.00;100123.80;1697267;81;21548;-73
2021/06/17 11:30:49;;;;;;;5.15;2.40;;;;;;;30.58;100.00;100129.89;1731142;80;21144;-69
2021/06/17 11:33:19;;;;;;;;;;;;;;;30.72;100.00;100127.24;1716691;83;22201;-71
2021/06/17 11:35:54;;;;;;;5.95;2.60;;;;;;;30.78;100.00;100128.66;1712787;81;20266;-65